Time;durP1;ratioP1;P1;durP2;ratioP2;P2;SDS_P1;SDS_P2;PMS_P1;PMS_P2;Temp;Humidity;BMP_temperature;BMP_pressure;BME280_temperature;BME280_humidity;BME280_pressure;Samples;Min_cycle;Max_cycle;Signal;HPM_P1;HPM_P2
2022/02/01 00:02:07;;;;;;;40.40;22.90;;;;;;;-2.85;78.71;98916.15;209668;1315;141154;-71
2022/02/01 00:39:28;;;;;;;51.40;23.60;;;;;;;-3.17;78.91;98946.91;208148;1316;140443;-67
2022/02/01 00:44:31;;;;;;;57.30;21.90;;;;;;;-3.25;78.71;98961.48;207132;1316;139397;-70
2022/02/01 00:49:36;;;;;;;39.60;20.20;;;;;;;-3.35;78.71;98977.39;207934;1316;139470;-71
2022/02/01 00:54:40;;;;;;;52.40;21.70;;;;;;;-3.41;78.64;98985.00;207643;1315;141909;-71
2022/02/01 00:59:44;;;;;;;47.30;25.00;;;;;;;-3.45;78.56;98982.33;208037;1316;139942;-70
2022/02/01 01:04:48;;;;;;;62.00;26.90;;;;;;;-3.47;78.99;98977.09;206991;1316;139624;-68
2022/02/01 01:09:56;;;;;;;54.00;22.50;;;;;;;-3.50;78.74;98981.05;207491;1316;139185;-70
2022/02/01 01:15:14;;;;;;;48.00;22.50;;;;;;;-3.54;79.04;98986.79;207060;1316;140511;-69
2022/02/01 01:58:15;;;;;;;48.90;20.40;;;;;;;-3.50;80.02;99028.89;208043;1316;140868;-71
2022/02/01 02:03:23;;;;;;;39.10;20.50;;;;;;;-3.49;79.96;99026.65;208391;1316;141016;-70
2022/02/01 02:08:28;;;;;;;41.80;20.00;;;;;;;-3.47;80.18;99043.94;209108;1318;141343;-70
2022/02/01 02:18:56;;;;;;;51.50;24.00;;;;;;;-3.30;80.19;99037.52;208807;1318;142790;-70
2022/02/01 02:23:58;;;;;;;49.30;21.90;;;;;;;-3.26;80.18;99049.02;209710;1317;141888;-65
2022/02/01 02:29:03;;;;;;;41.90;19.60;;;;;;;-3.23;80.26;99047.98;209319;1315;140514;-70
2022/02/01 02:34:12;;;;;;;46.00;20.40;;;;;;;-3.20;80.27;99049.98;208841;1316;140908;-70
2022/02/01 02:49:45;;;;;;;42.10;22.10;;;;;;;-2.99;80.22;99068.72;208166;1317;141915;-69
2022/02/01 02:54:50;;;;;;;43.30;18.70;;;;;;;-3.02;80.33;99071.36;207825;1316;140420;-68
2022/02/01 02:59:54;;;;;;;40.30;19.20;;;;;;;-3.04;80.30;99073.28;207709;1316;140540;-70
2022/02/01 03:04:57;;;;;;;38.80;19.50;;;;;;;-3.07;79.91;99071.35;207803;1315;140015;-70
2022/02/01 03:10:00;;;;;;;40.10;18.90;;;;;;;-3.09;80.09;99071.02;206848;1316;141230;-69
2022/02/01 03:15:34;;;;;;;41.60;18.70;;;;;;;-3.13;80.28;99088.11;207755;1316;140268;-70
2022/02/01 03:20:36;;;;;;;47.60;19.00;;;;;;;-3.17;80.32;99084.02;207569;1316;140089;-70
2022/02/01 03:25:40;;;;;;;51.60;20.00;;;;;;;-3.17;80.52;99078.26;208347;1317;141471;-70
2022/02/01 03:30:52;;;;;;;38.20;20.10;;;;;;;-3.13;80.40;99085.98;207361;1316;141838;-69
2022/02/01 03:35:55;;;;;;;44.50;20.20;;;;;;;-3.10;80.33;99100.52;207009;1316;141689;-70
2022/02/01 03:40:59;;;;;;;45.00;19.50;;;;;;;-3.12;80.44;99105.38;207610;1317;140560;-69
2022/02/01 03:46:04;;;;;;;35.30;17.40;;;;;;;-3.13;80.62;99105.02;207371;1316;140701;-69
2022/02/01 03:51:08;;;;;;;37.50;14.80;;;;;;;-3.14;80.77;99104.42;208387;1317;139504;-70
2022/02/01 03:56:31;;;;;;;42.90;17.30;;;;;;;-3.13;80.97;99103.91;207700;1317;139795;-69
2022/02/01 04:01:34;;;;;;;44.20;17.30;;;;;;;-3.02;80.88;99098.65;207630;1316;140798;-69
2022/02/01 04:06:36;;;;;;;36.00;20.20;;;;;;;-2.93;80.88;99092.13;207634;1317;139858;-69
2022/02/01 04:11:39;;;;;;;44.90;17.90;;;;;;;-2.92;81.02;99089.48;208436;1317;139166;-70
2022/02/01 04:17:01;;;;;;;36.00;12.50;;;;;;;-2.90;80.97;99092.16;208760;1316;141323;-68
2022/02/01 04:22:12;;;;;;;35.00;18.40;;;;;;;-2.87;81.09;99094.40;207737;1315;139299;-71
2022/02/01 04:27:33;;;;;;;44.30;19.50;;;;;;;-2.82;80.96;99084.98;208576;1317;141007;-72
2022/02/01 04:32:42;;;;;;;42.90;20.00;;;;;;;-2.77;81.11;99081.46;208963;1319;141736;-72
2022/02/01 04:38:17;;;;;;;40.40;21.20;;;;;;;-2.72;81.28;99089.97;208413;1318;139923;-69
2022/02/01 04:43:21;;;;;;;44.40;20.60;;;;;;;-2.68;81.14;99098.09;208327;1317;140763;-70
2022/02/01 04:48:26;;;;;;;54.90;24.20;;;;;;;-2.64;81.01;99103.86;208001;1318;141311;-70
2022/02/01 04:53:29;;;;;;;59.80;23.10;;;;;;;-2.57;81.01;99106.82;207655;1315;617182;-69
2022/02/01 04:58:46;;;;;;;53.90;23.50;;;;;;;-2.56;80.98;99112.39;207512;1317;139701;-67
2022/02/01 05:03:50;;;;;;;50.00;24.20;;;;;;;-2.56;81.25;99111.91;207205;1316;139451;-69
2022/02/01 05:08:53;;;;;;;55.20;25.20;;;;;;;-2.59;81.21;99113.11;207793;1317;139916;-69
2022/02/01 05:19:09;;;;;;;47.40;25.50;;;;;;;-2.57;81.35;99108.68;208061;1316;140002;-69
2022/02/01 05:24:13;;;;;;;40.90;23.00;;;;;;;-2.57;81.23;99107.83;207518;1316;140352;-70
2022/02/01 05:29:19;;;;;;;48.60;21.50;;;;;;;-2.63;81.25;99111.27;207881;1316;139526;-70
2022/02/01 05:34:22;;;;;;;46.80;19.70;;;;;;;-2.69;81.47;99109.83;207563;1316;140892;-70
2022/02/01 05:39:31;;;;;;;56.30;21.40;;;;;;;-2.68;81.37;99108.52;207051;1316;140414;-70
2022/02/01 05:44:34;;;;;;;43.80;19.20;;;;;;;-2.63;81.36;99112.66;207778;1320;140451;-69
2022/02/01 05:49:37;;;;;;;47.90;22.40;;;;;;;-2.64;81.43;99111.52;207006;1316;141146;-70
2022/02/01 05:54:40;;;;;;;48.00;19.80;;;;;;;-2.69;81.46;99118.64;206947;1316;140548;-65
2022/02/01 05:59:43;;;;;;;49.10;25.00;;;;;;;-2.74;81.55;99106.95;208473;1316;144431;-68
2022/02/01 06:05:00;;;;;;;;;;;;;;;;;;;;;
2022/02/01 06:10:07;;;;;;;47.40;20.70;;;;;;;-2.68;81.51;99122.73;206888;1317;141648;-65
2022/02/01 06:15:13;;;;;;;47.80;21.80;;;;;;;-2.67;81.79;99122.13;207595;1320;141173;-64
2022/02/01 06:20:16;;;;;;;46.00;23.10;;;;;;;-2.66;81.72;99122.21;208158;1317;141226;-66
2022/02/01 06:25:35;;;;;;;50.40;18.90;;;;;;;-2.67;81.58;99126.66;207059;1316;139999;-67
2022/02/01 06:30:39;;;;;;;34.50;18.40;;;;;;;-2.63;81.71;99131.09;206650;1316;141495;-65
2022/02/01 06:35:43;;;;;;;47.60;20.00;;;;;;;-2.59;81.82;99125.29;207667;1317;140499;-67
2022/02/01 06:40:47;;;;;;;43.20;20.70;;;;;;;-2.55;81.70;99127.83;209430;1320;140864;-69
2022/02/01 06:45:52;;;;;;;38.40;16.30;;;;;;;-2.56;81.64;99127.43;208596;1321;140965;-67
2022/02/01 06:50:54;;;;;;;40.20;17.10;;;;;;;-2.57;81.54;99127.08;209487;1316;139892;-70
2022/02/01 06:56:05;;;;;;;33.10;16.80;;;;;;;-2.48;81.33;99129.13;207322;1317;140850;-70
2022/02/01 07:01:08;;;;;;;48.90;21.10;;;;;;;-2.36;81.34;99133.31;208386;1319;140659;-66
2022/02/01 07:06:13;;;;;;;46.80;18.80;;;;;;;-2.18;81.42;99131.59;208182;1315;140478;-65
2022/02/01 07:11:17;;;;;;;42.90;19.10;;;;;;;-2.10;81.35;99124.00;208041;1316;139581;-69
2022/02/01 07:16:25;;;;;;;36.10;17.80;;;;;;;-1.99;81.40;99122.83;207171;1317;139493;-66
2022/02/01 07:21:32;;;;;;;40.60;16.50;;;;;;;-1.88;81.09;99122.02;208004;1316;160705;-67
2022/02/01 07:26:35;;;;;;;39.80;14.70;;;;;;;-1.66;81.09;99129.09;206954;1316;141128;-69
2022/02/01 07:31:37;;;;;;;27.00;15.50;;;;;;;-1.56;81.04;99120.45;208056;1316;141165;-72
2022/02/01 07:36:40;;;;;;;69.00;29.00;;;;;;;-1.53;81.16;99117.34;208077;1316;140636;-72
2022/02/01 07:41:57;;;;;;;55.20;24.70;;;;;;;-1.40;81.24;99121.38;207572;1316;140521;-71
2022/02/01 07:47:02;;;;;;;44.50;20.00;;;;;;;-1.31;81.09;99116.80;207095;1316;139413;-68
2022/02/01 07:52:06;;;;;;;29.90;15.00;;;;;;;-1.18;80.93;99121.41;207107;1316;140136;-69
2022/02/01 07:57:17;;;;;;;35.70;17.60;;;;;;;-1.05;81.00;99125.30;207831;1317;141521;-73
2022/02/01 08:02:30;;;;;;;38.50;17.90;;;;;;;-0.90;80.99;99123.05;207558;1316;141956;-74
2022/02/01 08:07:52;;;;;;;33.90;18.20;;;;;;;-0.89;80.95;99125.89;207328;1315;141339;-72
2022/02/01 08:24:37;;;;;;;32.30;15.20;;;;;;;-0.64;81.11;99120.21;206758;1318;140000;-76
2022/02/01 08:29:44;;;;;;;28.80;14.10;;;;;;;-0.37;81.29;99115.66;207399;1316;139239;-75
2022/02/01 08:34:47;;;;;;;36.30;18.20;;;;;;;-0.05;81.44;99119.45;206771;1316;140041;-74
2022/02/01 08:40:01;;;;;;;26.80;13.40;;;;;;;0.13;80.59;99129.06;207932;1317;140636;-69
2022/02/01 08:45:04;;;;;;;30.10;14.40;;;;;;;0.12;80.39;99122.69;209476;1316;140518;-70
2022/02/01 08:50:13;;;;;;;30.30;14.90;;;;;;;0.10;80.78;99121.40;209499;1314;139290;-69
2022/02/01 08:55:33;;;;;;;29.50;13.50;;;;;;;0.16;80.74;99125.04;208522;1318;139895;-70
2022/02/01 09:00:40;;;;;;;23.50;12.80;;;;;;;0.27;80.26;99120.16;208790;1321;139760;-76
2022/02/01 09:05:49;;;;;;;20.00;12.20;;;;;;;0.32;80.11;99113.85;209308;1317;140650;-73
2022/02/01 09:11:03;;;;;;;24.50;12.60;;;;;;;0.32;80.30;99106.68;208717;1316;140224;-72
2022/02/01 09:16:06;;;;;;;18.20;10.40;;;;;;;0.39;79.91;99104.65;208839;1316;140058;-72
2022/02/01 09:21:08;;;;;;;26.10;10.60;;;;;;;0.36;79.66;99102.29;208827;1317;140116;-71
2022/02/01 09:26:19;;;;;;;22.70;12.40;;;;;;;0.36;79.85;99097.25;208472;1317;141250;-73
2022/02/01 09:31:44;;;;;;;21.90;11.10;;;;;;;0.36;79.84;99095.54;206694;1316;142941;-71
2022/02/01 09:36:47;;;;;;;25.60;9.80;;;;;;;0.38;79.78;99087.98;206879;1316;153378;-74
2022/02/01 09:41:51;;;;;;;23.60;11.10;;;;;;;0.45;79.49;99087.17;207667;1314;141961;-74
2022/02/01 09:46:57;;;;;;;17.30;9.60;;;;;;;0.49;79.67;99085.90;207005;1316;152283;-73
2022/02/01 09:52:03;;;;;;;20.00;9.40;;;;;;;0.42;79.54;99083.40;207665;1317;139436;-73
2022/02/01 09:57:09;;;;;;;17.80;8.40;;;;;;;0.34;79.65;99088.23;208259;1316;140191;-73
2022/02/01 10:02:13;;;;;;;27.50;9.60;;;;;;;0.30;79.50;99082.42;207029;1316;140365;-72
2022/02/01 10:07:16;;;;;;;21.20;9.60;;;;;;;0.32;79.35;99072.06;207094;1316;140156;-73
2022/02/01 10:12:20;;;;;;;24.70;11.40;;;;;;;0.29;79.26;99068.74;207523;1317;139372;-73
2022/02/01 10:17:31;;;;;;;13.50;8.10;;;;;;;0.24;79.13;99051.31;206883;1317;139592;-71
2022/02/01 10:22:43;;;;;;;14.30;8.80;;;;;;;0.18;79.15;99049.10;207701;1317;139994;-72
2022/02/01 10:28:17;;;;;;;19.30;8.00;;;;;;;0.16;79.28;99039.05;207806;1316;139520;-71
2022/02/01 10:34:27;;;;;;;20.60;9.40;;;;;;;0.20;79.25;99021.76;207801;1315;141147;-72
2022/02/01 10:39:02;;;;;;;15.70;8.10;;;;;;;0.25;79.57;99013.17;207603;1317;139484;-71
2022/02/01 10:44:05;;;;;;;20.90;9.40;;;;;;;0.23;79.44;99008.71;207412;1318;141048;-71
2022/02/01 10:49:08;;;;;;;19.90;10.80;;;;;;;0.21;79.37;99005.42;209006;1318;140353;-69
2022/02/01 10:54:18;;;;;;;20.70;9.70;;;;;;;0.21;79.19;98997.27;208393;1317;143061;-69
2022/02/01 10:59:56;;;;;;;23.30;10.60;;;;;;;0.22;79.78;98996.21;209767;1317;140523;-70
2022/02/01 11:04:59;;;;;;;19.00;10.50;;;;;;;0.22;79.65;98991.45;207985;1316;140111;-73
2022/02/01 11:10:08;;;;;;;22.20;9.80;;;;;;;0.19;79.65;98976.50;208826;1318;141515;-74
2022/02/01 11:15:24;;;;;;;23.50;10.90;;;;;;;0.20;79.79;98970.66;209105;1317;139676;-73
2022/02/01 11:20:44;;;;;;;32.00;13.10;;;;;;;0.26;79.82;98958.83;208145;1317;142567;-74
2022/02/01 11:26:08;;;;;;;29.00;12.30;;;;;;;0.33;79.89;98948.23;207244;1316;141366;-69
2022/02/01 11:31:36;;;;;;;18.10;11.00;;;;;;;0.37;79.99;98935.64;207764;1315;142225;-72
2022/02/01 11:36:41;;;;;;;26.50;13.40;;;;;;;0.41;80.09;98923.30;207635;1317;139743;-67
2022/02/01 11:41:57;;;;;;;28.20;11.10;;;;;;;0.45;80.16;98914.45;208772;1317;139745;-73
2022/02/01 11:47:21;;;;;;;22.90;11.40;;;;;;;0.52;80.16;98910.23;207302;1317;141211;-77
2022/02/01 11:52:27;;;;;;;22.70;10.80;;;;;;;0.59;80.45;98898.39;207084;1315;142471;-77
2022/02/01 11:57:43;;;;;;;18.90;12.90;;;;;;;0.66;80.13;98887.13;207112;1316;140933;-72
2022/02/01 12:03:03;;;;;;;27.70;12.60;;;;;;;0.72;80.31;98878.10;207158;1316;139916;-69
2022/02/01 12:08:17;;;;;;;23.20;10.60;;;;;;;0.75;80.60;98873.75;206988;1315;140260;-72
2022/02/01 12:13:30;;;;;;;23.30;10.00;;;;;;;0.76;80.45;98860.89;206750;1316;141257;-73
2022/02/01 12:18:49;;;;;;;21.10;11.60;;;;;;;0.88;80.56;98846.91;207598;1315;144081;-68
2022/02/01 12:23:56;;;;;;;19.40;10.20;;;;;;;0.95;80.82;98841.77;207675;1316;141401;-69
2022/02/01 12:29:03;;;;;;;25.00;13.20;;;;;;;0.94;80.80;98838.56;207494;1316;141620;-69
2022/02/01 12:34:12;;;;;;;20.40;10.80;;;;;;;0.95;80.73;98830.55;207482;1316;140031;-67
2022/02/01 12:39:33;;;;;;;17.90;10.30;;;;;;;0.97;80.76;98821.42;207881;1317;142490;-70
2022/02/01 12:49:53;;;;;;;26.30;12.70;;;;;;;0.95;80.99;98811.69;207980;1317;139118;-69
2022/02/01 12:55:01;;;;;;;18.50;9.20;;;;;;;0.95;81.08;98810.23;208806;1316;534285;-70
2022/02/01 13:00:08;;;;;;;17.10;10.80;;;;;;;0.99;80.76;98807.02;208666;1318;139805;-75
2022/02/01 13:05:14;;;;;;;16.50;9.40;;;;;;;0.98;80.92;98800.40;209033;1318;140589;-75
2022/02/01 13:21:28;;;;;;;;;;;;;;;;;;;;;
2022/02/01 13:26:35;;;;;;;13.10;8.80;;;;;;;0.83;81.27;98777.10;208587;1317;143092;-69
2022/02/01 13:31:46;;;;;;;18.90;9.00;;;;;;;0.74;81.02;98773.54;209218;1317;139653;-69
2022/02/01 13:36:56;;;;;;;17.00;8.40;;;;;;;0.75;81.15;98769.52;206949;1316;142128;-68
2022/02/01 13:42:00;;;;;;;16.60;10.40;;;;;;;0.70;81.34;98764.80;207708;1315;142029;-64
2022/02/01 13:47:56;;;;;;;24.90;13.00;;;;;;;0.62;81.57;98749.70;207208;1316;139549;-70
2022/02/01 13:53:02;;;;;;;21.10;11.10;;;;;;;0.58;81.66;98732.52;207291;1315;141024;-66
2022/02/01 13:58:20;;;;;;;14.30;9.50;;;;;;;0.58;81.78;98730.60;207812;1318;141076;-67
2022/02/01 14:14:38;;;;;;;14.20;10.40;;;;;;;0.66;81.85;98719.60;207010;1317;144554;-67
2022/02/01 14:36:35;;;;;;;15.50;8.90;;;;;;;0.86;81.40;98685.38;208080;1317;142299;-75
2022/02/01 14:47:02;;;;;;;19.00;9.30;;;;;;;0.91;81.45;98665.85;207665;1317;139624;-66
2022/02/01 14:52:14;;;;;;;11.20;7.70;;;;;;;0.98;81.35;98657.94;207749;1315;142394;-68
2022/02/01 15:13:21;;;;;;;21.00;10.60;;;;;;;0.84;81.13;98642.91;207518;1317;140770;-73
2022/02/01 15:18:28;;;;;;;19.90;9.00;;;;;;;0.81;81.23;98634.10;208982;1318;139975;-73
2022/02/01 15:23:34;;;;;;;12.60;8.80;;;;;;;0.80;81.31;98613.98;208993;1317;140490;-71
2022/02/01 15:28:43;;;;;;;17.90;9.00;;;;;;;0.83;81.44;98610.66;209151;1317;140039;-72
2022/02/01 15:34:06;;;;;;;14.70;8.60;;;;;;;0.81;81.34;98601.77;208480;1317;139683;-69
2022/02/01 16:00:29;;;;;;;23.60;10.40;;;;;;;0.63;81.84;98554.15;208814;1316;140564;-70
2022/02/01 16:05:31;;;;;;;26.90;14.30;;;;;;;0.64;81.42;98543.55;207313;1317;139784;-71
2022/02/01 16:10:41;;;;;;;11.70;7.60;;;;;;;0.63;81.50;98533.10;207612;1315;140174;-66
2022/02/01 16:15:44;;;;;;;13.60;6.90;;;;;;;0.58;81.70;98518.75;207433;1317;139893;-68
2022/02/01 16:20:49;;;;;;;16.80;7.40;;;;;;;0.53;81.98;98503.02;207124;1317;139770;-67
2022/02/01 16:25:55;;;;;;;11.20;6.70;;;;;;;0.54;81.97;98493.17;207142;1318;139813;-68
2022/02/01 16:30:59;;;;;;;9.40;7.50;;;;;;;0.53;82.02;98477.15;207298;1317;139631;-67
2022/02/01 16:36:02;;;;;;;8.50;6.20;;;;;;;0.49;81.94;98465.38;207477;1317;139848;-69
2022/02/01 16:41:07;;;;;;;13.00;6.70;;;;;;;0.46;82.18;98459.36;208026;1317;139831;-67
2022/02/01 16:46:14;;;;;;;17.70;8.10;;;;;;;0.44;82.31;98436.36;207354;1315;139693;-69
2022/02/01 16:51:16;;;;;;;18.00;7.10;;;;;;;0.43;82.27;98427.69;207322;1317;232218;-68
2022/02/01 16:56:27;;;;;;;15.00;8.20;;;;;;;0.46;82.42;98408.13;207207;1316;140705;-68
2022/02/01 17:01:35;;;;;;;14.20;8.10;;;;;;;0.46;82.27;98394.86;207332;1317;141616;-68
2022/02/01 17:06:38;;;;;;;15.90;6.20;;;;;;;0.45;82.65;98377.27;207029;1317;140336;-71
2022/02/01 17:22:07;;;;;;;24.80;17.40;;;;;;;0.48;82.70;98340.77;208723;1317;140657;-68
2022/02/01 17:27:14;;;;;;;17.90;11.00;;;;;;;0.47;82.72;98321.34;208541;1315;140349;-70
2022/02/01 17:32:22;;;;;;;19.80;10.30;;;;;;;0.47;82.75;98307.66;209053;1315;141279;-67
2022/02/01 17:37:24;;;;;;;20.10;10.40;;;;;;;0.49;82.52;98291.69;208415;1317;139815;-66
2022/02/01 17:42:27;;;;;;;13.50;10.00;;;;;;;0.51;82.53;98285.55;209116;1317;140553;-72
2022/02/01 17:47:32;;;;;;;16.40;12.60;;;;;;;0.51;82.89;98265.02;208541;1318;141420;-68
2022/02/01 17:52:55;;;;;;;;;;;;;;;;;;;;;
2022/02/01 17:58:01;;;;;;;16.50;10.20;;;;;;;0.55;82.82;98247.03;207264;1316;141356;-70
2022/02/01 18:03:04;;;;;;;14.60;10.50;;;;;;;0.52;82.91;98232.39;207800;1317;139542;-68
2022/02/01 18:08:06;;;;;;;22.70;10.00;;;;;;;0.50;82.99;98207.99;208508;1314;139910;-67
2022/02/01 18:13:25;;;;;;;18.80;9.40;;;;;;;0.52;83.04;98199.32;207389;1316;140646;-67
2022/02/01 18:18:35;;;;;;;11.50;7.50;;;;;;;0.52;83.01;98194.27;207399;1317;139368;-68
2022/02/01 18:23:38;;;;;;;16.40;7.80;;;;;;;0.49;83.21;98177.42;207527;1316;139211;-65
2022/02/01 18:28:41;;;;;;;14.30;7.90;;;;;;;0.52;83.27;98161.60;207429;1317;140103;-65
2022/02/01 18:33:46;;;;;;;12.30;7.00;;;;;;;0.54;83.16;98140.86;207576;1316;141425;-67
2022/02/01 18:38:55;;;;;;;5.10;4.00;;;;;;;0.53;83.31;98120.54;207453;1315;139271;-68
2022/02/01 18:43:57;;;;;;;;;;;;;;;0.49;83.43;98109.17;207876;1317;139096;-68
2022/02/01 18:49:03;;;;;;;12.90;6.90;;;;;;;0.48;83.20;98101.45;207640;1317;127270;-63
2022/02/01 18:59:22;;;;;;;9.70;5.30;;;;;;;0.42;83.47;98063.69;208075;1316;140077;-67
2022/02/01 19:15:30;;;;;;;10.10;7.10;;;;;;;0.38;83.84;98015.44;207958;1316;139964;-69
2022/02/01 19:20:42;;;;;;;9.10;7.00;;;;;;;0.39;83.92;98003.61;209483;1315;139656;-70
2022/02/01 19:25:45;;;;;;;8.70;6.20;;;;;;;0.42;83.86;97980.65;208841;1317;162361;-70
2022/02/01 19:31:04;;;;;;;15.80;8.60;;;;;;;0.48;83.63;97975.17;209332;1317;141179;-68
2022/02/01 19:36:10;;;;;;;9.20;6.30;;;;;;;0.52;83.59;97957.44;209611;1315;140151;-70
2022/02/01 19:41:19;;;;;;;10.40;6.40;;;;;;;0.51;83.92;97936.27;207806;1316;140631;-69
2022/02/01 19:46:30;;;;;;;9.50;7.00;;;;;;;0.51;83.95;97924.38;207509;1316;141234;-69
2022/02/01 19:51:34;;;;;;;9.70;5.90;;;;;;;0.50;83.73;97908.92;208186;1317;141013;-72
2022/02/01 19:56:37;;;;;;;9.70;5.80;;;;;;;0.45;84.00;97899.20;207233;1315;141858;-68
2022/02/01 20:01:58;;;;;;;14.10;6.40;;;;;;;0.41;83.91;97883.35;208531;1317;139410;-68
2022/02/01 20:07:02;;;;;;;11.10;5.60;;;;;;;0.40;83.94;97869.13;207967;1317;141196;-71
2022/02/01 20:12:07;;;;;;;161.10;74.00;;;;;;;0.42;84.25;97850.80;207267;1316;139937;-69
2022/02/01 20:17:09;;;;;;;86.90;42.00;;;;;;;0.40;84.29;97837.20;207851;1317;141844;-68
2022/02/01 20:22:12;;;;;;;11.70;7.80;;;;;;;0.38;84.35;97824.45;207056;1317;140652;-67
2022/02/01 20:27:15;;;;;;;11.90;10.10;;;;;;;0.39;84.43;97809.70;207230;1317;142366;-67
2022/02/01 20:32:17;;;;;;;9.40;7.10;;;;;;;0.38;84.39;97815.35;206913;1317;140023;-67
2022/02/01 20:37:21;;;;;;;7.30;5.80;;;;;;;0.35;84.64;97795.38;207501;1317;140006;-67
2022/02/01 20:42:26;;;;;;;9.60;6.70;;;;;;;0.31;84.51;97785.86;207447;1316;139927;-70
2022/02/01 20:47:29;;;;;;;3.50;3.10;;;;;;;0.31;84.58;97780.45;207149;1316;141001;-66
2022/02/01 20:52:33;;;;;;;3.90;3.50;;;;;;;0.31;84.45;97774.58;207427;1316;140333;-69
2022/02/01 20:57:38;;;;;;;8.90;6.10;;;;;;;0.29;84.84;97726.66;207603;1315;537456;-69
2022/02/01 21:02:42;;;;;;;9.00;5.90;;;;;;;0.28;84.81;97731.84;206830;1316;140428;-67
2022/02/01 21:07:44;;;;;;;6.30;4.00;;;;;;;0.32;84.81;97752.27;208612;1317;139743;-70
2022/02/01 21:12:46;;;;;;;10.10;7.00;;;;;;;0.35;84.92;97736.35;208302;1316;219532;-70
2022/02/01 21:17:49;;;;;;;9.20;4.80;;;;;;;0.37;84.88;97715.73;208207;1315;139751;-70
2022/02/01 21:22:57;;;;;;;7.00;3.30;;;;;;;0.43;84.81;97695.92;208741;1315;140909;-69
2022/02/01 21:28:21;;;;;;;5.30;2.50;;;;;;;0.44;84.83;97691.02;208335;1316;140420;-68
2022/02/01 21:33:23;;;;;;;4.80;2.80;;;;;;;0.46;84.93;97690.23;208809;1317;139935;-69
2022/02/01 21:38:34;;;;;;;4.60;3.30;;;;;;;0.50;84.88;97677.23;209367;1316;141079;-70
2022/02/01 21:43:36;;;;;;;3.50;3.20;;;;;;;0.52;84.90;97661.89;209290;1315;139683;-71
2022/02/01 21:48:42;;;;;;;4.30;2.80;;;;;;;0.54;84.99;97653.31;209439;1316;139987;-70
2022/02/01 21:53:46;;;;;;;3.90;3.50;;;;;;;0.58;84.81;97654.52;208993;1316;139167;-71
2022/02/01 21:58:49;;;;;;;4.30;2.20;;;;;;;0.62;84.93;97642.86;209110;1317;139905;-72
2022/02/01 22:04:00;;;;;;;4.60;3.10;;;;;;;0.60;84.92;97628.88;207473;1318;138938;-69
2022/02/01 22:09:04;;;;;;;4.60;3.50;;;;;;;0.64;84.65;97618.56;207914;1316;140822;-68
2022/02/01 22:14:12;;;;;;;3.30;3.00;;;;;;;0.65;85.04;97614.45;208387;1318;139392;-71
2022/02/01 22:19:15;;;;;;;3.90;3.00;;;;;;;0.64;84.92;97607.41;207525;1316;139002;-70
2022/02/01 22:24:18;;;;;;;3.90;3.10;;;;;;;0.63;85.02;97598.92;207794;1317;139032;-71
2022/02/01 22:29:24;;;;;;;4.90;2.90;;;;;;;0.63;84.92;97596.42;207570;1317;139915;-72
2022/02/01 22:34:54;;;;;;;2.90;2.60;;;;;;;0.61;84.88;97591.06;207225;1316;139523;-71
2022/02/01 22:40:05;;;;;;;3.90;3.50;;;;;;;0.57;85.25;97585.60;207476;1316;140152;-70
2022/02/01 22:45:08;;;;;;;6.40;3.70;;;;;;;0.56;85.28;97591.86;207364;1318;141312;-65
2022/02/01 22:50:11;;;;;;;4.40;2.90;;;;;;;0.57;85.26;97596.98;207574;1317;139298;-67
2022/02/01 22:55:13;;;;;;;3.60;2.80;;;;;;;0.61;85.20;97598.38;208059;1316;140794;-71
2022/02/01 23:00:32;;;;;;;4.60;4.10;;;;;;;0.61;85.32;97587.41;207407;1316;139708;-69
2022/02/01 23:05:42;;;;;;;2.60;2.40;;;;;;;0.60;85.24;97584.30;207923;1319;141159;-72
2022/02/01 23:10:51;;;;;;;2.50;2.30;;;;;;;0.64;85.26;97577.77;207317;1316;140304;-71
2022/02/01 23:17:41;;;;;;;3.20;2.70;;;;;;;0.66;85.41;97585.16;208273;1316;141931;-72
2022/02/01 23:21:27;;;;;;;4.10;3.50;;;;;;;0.65;85.80;97574.05;208158;1316;140867;-72
2022/02/01 23:26:30;;;;;;;6.20;3.50;;;;;;;0.65;85.49;97576.91;207369;1316;140225;-70
2022/02/01 23:31:51;;;;;;;11.00;5.10;;;;;;;0.66;85.42;97576.14;208364;1316;141140;-71
2022/02/01 23:37:24;;;;;;;5.40;3.50;;;;;;;0.70;85.60;97573.90;208391;1316;140301;-72
2022/02/01 23:42:54;;;;;;;6.40;5.60;;;;;;;0.71;85.67;97567.64;209189;1316;140423;-75
2022/02/01 23:48:05;;;;;;;6.70;4.70;;;;;;;0.78;85.69;97566.65;209017;1316;139017;-70
2022/02/01 23:53:09;;;;;;;5.60;4.70;;;;;;;0.87;85.70;97565.71;208623;1318;141680;-76
2022/02/01 23:58:29;;;;;;;6.90;6.00;;;;;;;0.89;85.53;97569.96;209381;1316;139388;-73
